sensor_id;sensor_type;location;lat;lon;timestamp;P1;durP1;ratioP1;P2;durP2;ratioP2
1350;SDS011;669;50.206;9.998;2023-04-25T00:00:24;6.27;;;5.13;;
1350;SDS011;669;50.206;9.998;2023-04-25T00:02:52;5.60;;;5.10;;
1350;SDS011;669;50.206;9.998;2023-04-25T00:05:22;5.33;;;4.67;;
1350;SDS011;669;50.206;9.998;2023-04-25T00:07:50;5.83;;;4.50;;
1350;SDS011;669;50.206;9.998;2023-04-25T00:10:19;4.30;;;3.90;;
1350;SDS011;669;50.206;9.998;2023-04-25T00:12:47;4.90;;;4.40;;
1350;SDS011;669;50.206;9.998;2023-04-25T00:15:16;4.90;;;4.50;;
1350;SDS011;669;50.206;9.998;2023-04-25T00:17:44;4.47;;;4.13;;
1350;SDS011;669;50.206;9.998;2023-04-25T00:20:12;5.03;;;4.47;;
1350;SDS011;669;50.206;9.998;2023-04-25T00:22:41;8.67;;;5.80;;
1350;SDS011;669;50.206;9.998;2023-04-25T00:25:09;6.33;;;4.83;;
1350;SDS011;669;50.206;9.998;2023-04-25T00:27:37;4.87;;;4.40;;
1350;SDS011;669;50.206;9.998;2023-04-25T00:30:05;5.17;;;4.67;;
1350;SDS011;669;50.206;9.998;2023-04-25T00:32:35;4.50;;;4.03;;
1350;SDS011;669;50.206;9.998;2023-04-25T00:35:04;4.83;;;4.07;;
1350;SDS011;669;50.206;9.998;2023-04-25T00:37:32;3.97;;;3.57;;
1350;SDS011;669;50.206;9.998;2023-04-25T00:40:00;4.03;;;3.70;;
1350;SDS011;669;50.206;9.998;2023-04-25T00:42:28;4.57;;;4.17;;
1350;SDS011;669;50.206;9.998;2023-04-25T00:44:57;4.23;;;3.83;;
1350;SDS011;669;50.206;9.998;2023-04-25T00:47:26;3.77;;;3.47;;
1350;SDS011;669;50.206;9.998;2023-04-25T00:49:57;5.53;;;4.53;;
1350;SDS011;669;50.206;9.998;2023-04-25T00:52:25;5.20;;;4.70;;
1350;SDS011;669;50.206;9.998;2023-04-25T00:54:53;6.80;;;4.93;;
1350;SDS011;669;50.206;9.998;2023-04-25T00:57:21;5.37;;;4.87;;
1350;SDS011;669;50.206;9.998;2023-04-25T00:59:49;5.90;;;5.40;;
1350;SDS011;669;50.206;9.998;2023-04-25T01:02:19;7.40;;;6.03;;
1350;SDS011;669;50.206;9.998;2023-04-25T01:04:48;5.73;;;5.13;;
1350;SDS011;669;50.206;9.998;2023-04-25T01:07:17;4.57;;;4.17;;
1350;SDS011;669;50.206;9.998;2023-04-25T01:09:45;4.50;;;4.10;;
1350;SDS011;669;50.206;9.998;2023-04-25T01:12:13;4.37;;;3.97;;
1350;SDS011;669;50.206;9.998;2023-04-25T01:14:41;4.63;;;4.17;;
1350;SDS011;669;50.206;9.998;2023-04-25T01:17:09;5.77;;;5.27;;
1350;SDS011;669;50.206;9.998;2023-04-25T01:19:38;4.23;;;3.93;;
1350;SDS011;669;50.206;9.998;2023-04-25T01:22:07;6.33;;;4.63;;
1350;SDS011;669;50.206;9.998;2023-04-25T01:24:37;5.80;;;5.20;;
1350;SDS011;669;50.206;9.998;2023-04-25T01:27:05;6.00;;;5.00;;
1350;SDS011;669;50.206;9.998;2023-04-25T01:29:33;6.57;;;5.97;;
1350;SDS011;669;50.206;9.998;2023-04-25T01:32:02;6.97;;;6.27;;
1350;SDS011;669;50.206;9.998;2023-04-25T01:34:31;5.60;;;4.93;;
1350;SDS011;669;50.206;9.998;2023-04-25T01:37:00;6.40;;;5.47;;
1350;SDS011;669;50.206;9.998;2023-04-25T01:39:29;5.93;;;5.43;;
1350;SDS011;669;50.206;9.998;2023-04-25T01:41:58;6.47;;;5.87;;
1350;SDS011;669;50.206;9.998;2023-04-25T01:44:27;7.37;;;6.00;;
1350;SDS011;669;50.206;9.998;2023-04-25T01:46:55;7.50;;;6.10;;
1350;SDS011;669;50.206;9.998;2023-04-25T01:49:23;8.37;;;6.90;;
1350;SDS011;669;50.206;9.998;2023-04-25T01:51:51;6.47;;;5.80;;
1350;SDS011;669;50.206;9.998;2023-04-25T01:54:19;7.00;;;6.40;;
1350;SDS011;669;50.206;9.998;2023-04-25T01:56:51;7.00;;;6.30;;
1350;SDS011;669;50.206;9.998;2023-04-25T01:59:19;7.00;;;5.77;;
1350;SDS011;669;50.206;9.998;2023-04-25T02:01:47;8.00;;;6.73;;
1350;SDS011;669;50.206;9.998;2023-04-25T02:04:15;8.87;;;7.70;;
1350;SDS011;669;50.206;9.998;2023-04-25T02:06:44;9.77;;;7.83;;
1350;SDS011;669;50.206;9.998;2023-04-25T02:09:12;7.50;;;6.70;;
1350;SDS011;669;50.206;9.998;2023-04-25T02:11:39;10.03;;;7.23;;
1350;SDS011;669;50.206;9.998;2023-04-25T02:14:09;7.60;;;6.60;;
1350;SDS011;669;50.206;9.998;2023-04-25T02:16:37;10.10;;;7.10;;
1350;SDS011;669;50.206;9.998;2023-04-25T02:19:05;9.17;;;8.00;;
1350;SDS011;669;50.206;9.998;2023-04-25T02:21:34;9.77;;;8.73;;
1350;SDS011;669;50.206;9.998;2023-04-25T02:24:02;12.33;;;9.00;;
1350;SDS011;669;50.206;9.998;2023-04-25T02:26:31;10.10;;;7.63;;
1350;SDS011;669;50.206;9.998;2023-04-25T02:28:59;10.00;;;7.33;;
1350;SDS011;669;50.206;9.998;2023-04-25T02:31:28;7.20;;;6.50;;
1350;SDS011;669;50.206;9.998;2023-04-25T02:33:56;9.60;;;6.67;;
1350;SDS011;669;50.206;9.998;2023-04-25T02:36:24;9.13;;;7.30;;
1350;SDS011;669;50.206;9.998;2023-04-25T02:38:52;7.90;;;7.10;;
1350;SDS011;669;50.206;9.998;2023-04-25T02:41:20;8.67;;;7.20;;
1350;SDS011;669;50.206;9.998;2023-04-25T02:43:48;8.23;;;6.90;;
1350;SDS011;669;50.206;9.998;2023-04-25T02:46:16;7.77;;;7.07;;
1350;SDS011;669;50.206;9.998;2023-04-25T02:49:05;7.40;;;6.20;;
1350;SDS011;669;50.206;9.998;2023-04-25T02:51:33;9.03;;;8.13;;
1350;SDS011;669;50.206;9.998;2023-04-25T02:54:01;12.00;;;7.73;;
1350;SDS011;669;50.206;9.998;2023-04-25T02:56:29;8.77;;;7.60;;
1350;SDS011;669;50.206;9.998;2023-04-25T02:58:56;7.57;;;6.77;;
1350;SDS011;669;50.206;9.998;2023-04-25T03:01:25;7.87;;;6.10;;
1350;SDS011;669;50.206;9.998;2023-04-25T03:03:53;8.33;;;6.77;;
1350;SDS011;669;50.206;9.998;2023-04-25T03:06:22;7.90;;;5.30;;
1350;SDS011;669;50.206;9.998;2023-04-25T03:08:50;6.53;;;5.60;;
1350;SDS011;669;50.206;9.998;2023-04-25T03:11:18;6.40;;;5.20;;
1350;SDS011;669;50.206;9.998;2023-04-25T03:13:47;8.83;;;6.70;;
1350;SDS011;669;50.206;9.998;2023-04-25T03:16:15;8.50;;;6.87;;
1350;SDS011;669;50.206;9.998;2023-04-25T03:18:43;6.17;;;5.40;;
1350;SDS011;669;50.206;9.998;2023-04-25T03:21:11;9.57;;;7.60;;
1350;SDS011;669;50.206;9.998;2023-04-25T03:23:40;11.20;;;7.90;;
1350;SDS011;669;50.206;9.998;2023-04-25T03:26:08;8.50;;;7.50;;
1350;SDS011;669;50.206;9.998;2023-04-25T03:28:35;8.07;;;7.13;;
1350;SDS011;669;50.206;9.998;2023-04-25T03:31:03;9.93;;;8.13;;
1350;SDS011;669;50.206;9.998;2023-04-25T03:33:31;10.73;;;7.70;;
1350;SDS011;669;50.206;9.998;2023-04-25T03:35:59;9.57;;;7.67;;
1350;SDS011;669;50.206;9.998;2023-04-25T03:38:27;11.87;;;9.23;;
1350;SDS011;669;50.206;9.998;2023-04-25T03:40:56;14.40;;;10.20;;
1350;SDS011;669;50.206;9.998;2023-04-25T03:43:24;10.90;;;9.63;;
1350;SDS011;669;50.206;9.998;2023-04-25T03:45:52;12.53;;;10.70;;
1350;SDS011;669;50.206;9.998;2023-04-25T03:48:20;9.60;;;7.87;;
1350;SDS011;669;50.206;9.998;2023-04-25T03:50:51;10.20;;;8.83;;
1350;SDS011;669;50.206;9.998;2023-04-25T03:53:19;11.67;;;10.07;;
1350;SDS011;669;50.206;9.998;2023-04-25T03:55:47;14.57;;;10.90;;
1350;SDS011;669;50.206;9.998;2023-04-25T03:58:16;10.97;;;9.13;;
1350;SDS011;669;50.206;9.998;2023-04-25T04:00:44;15.70;;;8.90;;
1350;SDS011;669;50.206;9.998;2023-04-25T04:03:12;11.60;;;9.03;;
1350;SDS011;669;50.206;9.998;2023-04-25T04:05:40;14.37;;;10.47;;
1350;SDS011;669;50.206;9.998;2023-04-25T04:08:08;15.90;;;11.67;;
1350;SDS011;669;50.206;9.998;2023-04-25T04:10:36;12.30;;;9.83;;
1350;SDS011;669;50.206;9.998;2023-04-25T04:13:04;13.17;;;9.03;;
1350;SDS011;669;50.206;9.998;2023-04-25T04:15:33;14.77;;;10.90;;
1350;SDS011;669;50.206;9.998;2023-04-25T04:18:01;12.10;;;9.70;;
1350;SDS011;669;50.206;9.998;2023-04-25T04:20:29;11.20;;;9.53;;
1350;SDS011;669;50.206;9.998;2023-04-25T04:22:57;14.60;;;11.27;;
1350;SDS011;669;50.206;9.998;2023-04-25T04:25:25;13.03;;;9.97;;
1350;SDS011;669;50.206;9.998;2023-04-25T04:27:54;16.43;;;11.50;;
1350;SDS011;669;50.206;9.998;2023-04-25T04:30:22;14.83;;;11.60;;
1350;SDS011;669;50.206;9.998;2023-04-25T04:32:52;17.37;;;12.67;;
1350;SDS011;669;50.206;9.998;2023-04-25T04:35:21;11.93;;;10.30;;
1350;SDS011;669;50.206;9.998;2023-04-25T04:37:49;19.47;;;12.33;;
1350;SDS011;669;50.206;9.998;2023-04-25T04:40:17;15.77;;;11.30;;
1350;SDS011;669;50.206;9.998;2023-04-25T04:42:46;13.50;;;10.80;;
1350;SDS011;669;50.206;9.998;2023-04-25T04:45:15;17.13;;;11.30;;
1350;SDS011;669;50.206;9.998;2023-04-25T04:47:44;20.13;;;12.93;;
1350;SDS011;669;50.206;9.998;2023-04-25T04:50:13;16.20;;;10.67;;
1350;SDS011;669;50.206;9.998;2023-04-25T04:52:42;16.03;;;11.70;;
1350;SDS011;669;50.206;9.998;2023-04-25T04:55:10;12.00;;;10.17;;
1350;SDS011;669;50.206;9.998;2023-04-25T04:57:38;12.40;;;10.77;;
1350;SDS011;669;50.206;9.998;2023-04-25T05:00:06;13.40;;;10.23;;
1350;SDS011;669;50.206;9.998;2023-04-25T05:02:37;14.07;;;11.40;;
1350;SDS011;669;50.206;9.998;2023-04-25T05:05:06;20.53;;;11.70;;
1350;SDS011;669;50.206;9.998;2023-04-25T05:07:36;11.23;;;9.43;;
1350;SDS011;669;50.206;9.998;2023-04-25T05:10:04;14.43;;;11.47;;
1350;SDS011;669;50.206;9.998;2023-04-25T05:12:33;15.47;;;10.17;;
1350;SDS011;669;50.206;9.998;2023-04-25T05:15:02;19.50;;;9.73;;
1350;SDS011;669;50.206;9.998;2023-04-25T05:17:30;12.40;;;8.53;;
1350;SDS011;669;50.206;9.998;2023-04-25T05:19:59;15.63;;;8.20;;
1350;SDS011;669;50.206;9.998;2023-04-25T05:22:27;10.33;;;7.93;;
1350;SDS011;669;50.206;9.998;2023-04-25T05:24:56;11.13;;;8.40;;
1350;SDS011;669;50.206;9.998;2023-04-25T05:27:24;9.20;;;8.20;;
1350;SDS011;669;50.206;9.998;2023-04-25T05:29:52;10.80;;;7.50;;
1350;SDS011;669;50.206;9.998;2023-04-25T05:32:19;10.40;;;8.20;;
1350;SDS011;669;50.206;9.998;2023-04-25T05:34:48;10.40;;;7.17;;
1350;SDS011;669;50.206;9.998;2023-04-25T05:37:16;14.80;;;7.00;;
1350;SDS011;669;50.206;9.998;2023-04-25T05:39:44;14.90;;;8.40;;
1350;SDS011;669;50.206;9.998;2023-04-25T05:42:13;11.70;;;7.67;;
1350;SDS011;669;50.206;9.998;2023-04-25T05:44:41;10.70;;;6.40;;
1350;SDS011;669;50.206;9.998;2023-04-25T05:47:09;7.43;;;6.23;;
1350;SDS011;669;50.206;9.998;2023-04-25T05:49:37;6.60;;;5.90;;
1350;SDS011;669;50.206;9.998;2023-04-25T05:52:05;12.40;;;6.23;;
1350;SDS011;669;50.206;9.998;2023-04-25T05:54:33;7.70;;;5.10;;
1350;SDS011;669;50.206;9.998;2023-04-25T05:57:01;8.90;;;5.63;;
1350;SDS011;669;50.206;9.998;2023-04-25T05:59:31;10.13;;;6.10;;
1350;SDS011;669;50.206;9.998;2023-04-25T06:01:59;7.83;;;6.37;;
1350;SDS011;669;50.206;9.998;2023-04-25T06:04:27;8.53;;;5.50;;
1350;SDS011;669;50.206;9.998;2023-04-25T06:06:57;7.90;;;5.90;;
1350;SDS011;669;50.206;9.998;2023-04-25T06:09:24;8.67;;;6.37;;
1350;SDS011;669;50.206;9.998;2023-04-25T06:11:52;5.40;;;4.43;;
1350;SDS011;669;50.206;9.998;2023-04-25T06:14:20;5.90;;;4.70;;
1350;SDS011;669;50.206;9.998;2023-04-25T06:16:50;5.77;;;4.50;;
1350;SDS011;669;50.206;9.998;2023-04-25T06:19:18;10.33;;;5.77;;
1350;SDS011;669;50.206;9.998;2023-04-25T06:21:46;6.90;;;5.10;;
1350;SDS011;669;50.206;9.998;2023-04-25T06:24:13;7.70;;;5.20;;
1350;SDS011;669;50.206;9.998;2023-04-25T06:26:41;5.73;;;4.03;;
1350;SDS011;669;50.206;9.998;2023-04-25T06:29:09;6.30;;;4.50;;
1350;SDS011;669;50.206;9.998;2023-04-25T06:31:37;7.40;;;4.83;;
1350;SDS011;669;50.206;9.998;2023-04-25T06:34:06;9.00;;;5.30;;
1350;SDS011;669;50.206;9.998;2023-04-25T06:36:34;9.87;;;5.33;;
1350;SDS011;669;50.206;9.998;2023-04-25T06:39:02;4.40;;;4.00;;
1350;SDS011;669;50.206;9.998;2023-04-25T06:41:31;7.87;;;4.10;;
1350;SDS011;669;50.206;9.998;2023-04-25T06:43:58;8.90;;;4.33;;
1350;SDS011;669;50.206;9.998;2023-04-25T06:46:26;9.00;;;6.30;;
1350;SDS011;669;50.206;9.998;2023-04-25T06:48:54;7.07;;;4.90;;
1350;SDS011;669;50.206;9.998;2023-04-25T06:51:23;6.47;;;5.53;;
1350;SDS011;669;50.206;9.998;2023-04-25T06:53:54;14.27;;;10.50;;
1350;SDS011;669;50.206;9.998;2023-04-25T06:56:22;7.80;;;6.70;;
1350;SDS011;669;50.206;9.998;2023-04-25T06:58:50;7.30;;;4.50;;
1350;SDS011;669;50.206;9.998;2023-04-25T07:01:18;5.63;;;3.60;;
1350;SDS011;669;50.206;9.998;2023-04-25T07:03:46;5.37;;;3.10;;
1350;SDS011;669;50.206;9.998;2023-04-25T07:06:15;4.93;;;3.00;;
1350;SDS011;669;50.206;9.998;2023-04-25T07:08:44;4.50;;;3.60;;
1350;SDS011;669;50.206;9.998;2023-04-25T07:11:12;3.90;;;3.40;;
1350;SDS011;669;50.206;9.998;2023-04-25T07:13:39;3.03;;;2.80;;
1350;SDS011;669;50.206;9.998;2023-04-25T07:16:07;11.83;;;7.93;;
1350;SDS011;669;50.206;9.998;2023-04-25T07:18:35;10.53;;;8.07;;
1350;SDS011;669;50.206;9.998;2023-04-25T07:21:03;13.10;;;7.40;;
1350;SDS011;669;50.206;9.998;2023-04-25T07:23:31;5.50;;;3.80;;
1350;SDS011;669;50.206;9.998;2023-04-25T07:26:00;2.50;;;2.30;;
1350;SDS011;669;50.206;9.998;2023-04-25T07:28:28;4.63;;;3.37;;
1350;SDS011;669;50.206;9.998;2023-04-25T07:30:56;3.23;;;2.53;;
1350;SDS011;669;50.206;9.998;2023-04-25T07:33:24;2.70;;;2.50;;
1350;SDS011;669;50.206;9.998;2023-04-25T07:35:52;2.40;;;2.20;;
1350;SDS011;669;50.206;9.998;2023-04-25T07:38:21;3.30;;;3.00;;
1350;SDS011;669;50.206;9.998;2023-04-25T07:40:49;2.93;;;2.40;;
1350;SDS011;669;50.206;9.998;2023-04-25T07:43:18;3.57;;;2.50;;
1350;SDS011;669;50.206;9.998;2023-04-25T07:45:46;5.23;;;2.97;;
1350;SDS011;669;50.206;9.998;2023-04-25T07:48:16;6.53;;;3.57;;
1350;SDS011;669;50.206;9.998;2023-04-25T07:50:44;3.30;;;2.63;;
1350;SDS011;669;50.206;9.998;2023-04-25T07:53:12;7.03;;;2.70;;
1350;SDS011;669;50.206;9.998;2023-04-25T07:55:40;5.73;;;3.50;;
1350;SDS011;669;50.206;9.998;2023-04-25T07:58:08;2.93;;;2.60;;
1350;SDS011;669;50.206;9.998;2023-04-25T08:00:38;5.77;;;4.10;;
1350;SDS011;669;50.206;9.998;2023-04-25T08:03:06;4.30;;;3.90;;
1350;SDS011;669;50.206;9.998;2023-04-25T08:05:34;2.47;;;2.00;;
1350;SDS011;669;50.206;9.998;2023-04-25T08:08:02;2.07;;;1.97;;
1350;SDS011;669;50.206;9.998;2023-04-25T08:10:32;2.63;;;2.43;;
1350;SDS011;669;50.206;9.998;2023-04-25T08:13:00;1.60;;;1.50;;
1350;SDS011;669;50.206;9.998;2023-04-25T08:15:28;1.80;;;1.70;;
1350;SDS011;669;50.206;9.998;2023-04-25T08:17:58;2.63;;;2.43;;
1350;SDS011;669;50.206;9.998;2023-04-25T08:20:25;2.30;;;2.13;;
1350;SDS011;669;50.206;9.998;2023-04-25T08:22:53;1.57;;;1.40;;
1350;SDS011;669;50.206;9.998;2023-04-25T08:25:21;1.60;;;1.50;;
1350;SDS011;669;50.206;9.998;2023-04-25T08:27:49;1.87;;;1.77;;
1350;SDS011;669;50.206;9.998;2023-04-25T08:30:17;1.57;;;1.47;;
1350;SDS011;669;50.206;9.998;2023-04-25T08:32:45;1.53;;;1.43;;
1350;SDS011;669;50.206;9.998;2023-04-25T08:35:14;3.23;;;2.13;;
1350;SDS011;669;50.206;9.998;2023-04-25T08:37:43;2.20;;;1.90;;
1350;SDS011;669;50.206;9.998;2023-04-25T08:40:12;3.00;;;1.73;;
1350;SDS011;669;50.206;9.998;2023-04-25T08:42:42;2.73;;;2.03;;
1350;SDS011;669;50.206;9.998;2023-04-25T08:45:10;3.53;;;2.80;;
1350;SDS011;669;50.206;9.998;2023-04-25T08:47:38;2.27;;;2.07;;
1350;SDS011;669;50.206;9.998;2023-04-25T08:50:07;4.97;;;2.30;;
1350;SDS011;669;50.206;9.998;2023-04-25T08:52:37;2.00;;;1.90;;
1350;SDS011;669;50.206;9.998;2023-04-25T08:55:10;3.10;;;2.87;;
1350;SDS011;669;50.206;9.998;2023-04-25T08:57:40;1.80;;;1.70;;
1350;SDS011;669;50.206;9.998;2023-04-25T09:00:10;1.97;;;1.87;;
1350;SDS011;669;50.206;9.998;2023-04-25T09:02:39;1.90;;;1.80;;
1350;SDS011;669;50.206;9.998;2023-04-25T09:05:08;2.43;;;2.23;;
1350;SDS011;669;50.206;9.998;2023-04-25T09:07:38;1.97;;;1.87;;
1350;SDS011;669;50.206;9.998;2023-04-25T09:10:06;1.90;;;1.80;;
1350;SDS011;669;50.206;9.998;2023-04-25T09:12:35;4.33;;;1.67;;
1350;SDS011;669;50.206;9.998;2023-04-25T09:15:04;2.13;;;1.90;;
1350;SDS011;669;50.206;9.998;2023-04-25T09:17:34;2.50;;;2.30;;
1350;SDS011;669;50.206;9.998;2023-04-25T09:20:07;2.80;;;2.60;;
1350;SDS011;669;50.206;9.998;2023-04-25T09:22:36;3.10;;;2.00;;
1350;SDS011;669;50.206;9.998;2023-04-25T09:25:09;2.53;;;2.00;;
1350;SDS011;669;50.206;9.998;2023-04-25T09:27:46;2.83;;;2.57;;
1350;SDS011;669;50.206;9.998;2023-04-25T09:30:17;1.87;;;1.77;;
1350;SDS011;669;50.206;9.998;2023-04-25T09:32:45;6.83;;;1.93;;
1350;SDS011;669;50.206;9.998;2023-04-25T09:35:22;1.80;;;1.60;;
1350;SDS011;669;50.206;9.998;2023-04-25T09:37:51;4.20;;;2.57;;
1350;SDS011;669;50.206;9.998;2023-04-25T09:40:20;2.30;;;2.20;;
1350;SDS011;669;50.206;9.998;2023-04-25T09:42:48;1.70;;;1.60;;
1350;SDS011;669;50.206;9.998;2023-04-25T09:45:16;2.47;;;2.27;;
1350;SDS011;669;50.206;9.998;2023-04-25T09:47:44;2.03;;;1.67;;
1350;SDS011;669;50.206;9.998;2023-04-25T09:50:15;2.80;;;2.30;;
1350;SDS011;669;50.206;9.998;2023-04-25T09:52:45;2.33;;;2.13;;
1350;SDS011;669;50.206;9.998;2023-04-25T09:55:13;2.13;;;1.90;;
1350;SDS011;669;50.206;9.998;2023-04-25T09:57:43;3.53;;;2.47;;
1350;SDS011;669;50.206;9.998;2023-04-25T10:00:15;3.20;;;3.00;;
1350;SDS011;669;50.206;9.998;2023-04-25T10:02:45;3.03;;;2.47;;
1350;SDS011;669;50.206;9.998;2023-04-25T10:05:14;4.00;;;2.70;;
1350;SDS011;669;50.206;9.998;2023-04-25T10:07:43;2.27;;;2.17;;
1350;SDS011;669;50.206;9.998;2023-04-25T10:10:12;2.33;;;1.77;;
1350;SDS011;669;50.206;9.998;2023-04-25T10:12:40;2.57;;;2.20;;
1350;SDS011;669;50.206;9.998;2023-04-25T10:15:11;2.27;;;2.07;;
1350;SDS011;669;50.206;9.998;2023-04-25T10:17:40;3.10;;;2.43;;
1350;SDS011;669;50.206;9.998;2023-04-25T10:20:09;5.20;;;2.30;;
1350;SDS011;669;50.206;9.998;2023-04-25T10:22:38;2.77;;;2.53;;
1350;SDS011;669;50.206;9.998;2023-04-25T10:25:08;2.70;;;2.50;;
1350;SDS011;669;50.206;9.998;2023-04-25T10:27:38;4.27;;;2.27;;
1350;SDS011;669;50.206;9.998;2023-04-25T10:30:07;2.23;;;2.03;;
1350;SDS011;669;50.206;9.998;2023-04-25T10:32:38;4.50;;;2.43;;
1350;SDS011;669;50.206;9.998;2023-04-25T10:35:10;3.23;;;2.83;;
1350;SDS011;669;50.206;9.998;2023-04-25T10:37:51;2.10;;;2.00;;
1350;SDS011;669;50.206;9.998;2023-04-25T10:40:24;3.30;;;2.90;;
1350;SDS011;669;50.206;9.998;2023-04-25T10:42:53;2.20;;;2.10;;
1350;SDS011;669;50.206;9.998;2023-04-25T10:45:21;2.30;;;2.10;;
1350;SDS011;669;50.206;9.998;2023-04-25T10:47:50;2.70;;;2.50;;
1350;SDS011;669;50.206;9.998;2023-04-25T10:50:18;2.40;;;2.20;;
1350;SDS011;669;50.206;9.998;2023-04-25T10:52:46;2.67;;;2.43;;
1350;SDS011;669;50.206;9.998;2023-04-25T10:55:14;1.90;;;1.70;;
1350;SDS011;669;50.206;9.998;2023-04-25T10:57:42;2.33;;;2.23;;
1350;SDS011;669;50.206;9.998;2023-04-25T11:00:13;4.50;;;1.93;;
1350;SDS011;669;50.206;9.998;2023-04-25T11:02:44;3.10;;;1.93;;
1350;SDS011;669;50.206;9.998;2023-04-25T11:05:22;1.80;;;1.70;;
1350;SDS011;669;50.206;9.998;2023-04-25T11:07:52;4.30;;;2.10;;
1350;SDS011;669;50.206;9.998;2023-04-25T11:10:32;1.60;;;1.50;;
1350;SDS011;669;50.206;9.998;2023-04-25T11:13:01;1.97;;;1.87;;
1350;SDS011;669;50.206;9.998;2023-04-25T11:15:30;1.80;;;1.70;;
1350;SDS011;669;50.206;9.998;2023-04-25T11:17:57;3.10;;;2.30;;
1350;SDS011;669;50.206;9.998;2023-04-25T11:20:27;1.80;;;1.70;;
1350;SDS011;669;50.206;9.998;2023-04-25T11:22:57;1.93;;;1.83;;
1350;SDS011;669;50.206;9.998;2023-04-25T11:25:26;1.87;;;1.67;;
1350;SDS011;669;50.206;9.998;2023-04-25T11:27:55;1.60;;;1.50;;
1350;SDS011;669;50.206;9.998;2023-04-25T11:30:24;1.67;;;1.57;;
1350;SDS011;669;50.206;9.998;2023-04-25T11:32:54;4.20;;;2.00;;
1350;SDS011;669;50.206;9.998;2023-04-25T11:35:22;1.60;;;1.50;;
1350;SDS011;669;50.206;9.998;2023-04-25T11:37:53;2.17;;;1.70;;
1350;SDS011;669;50.206;9.998;2023-04-25T11:40:21;3.70;;;2.40;;
1350;SDS011;669;50.206;9.998;2023-04-25T11:42:49;2.13;;;2.03;;
1350;SDS011;669;50.206;9.998;2023-04-25T11:45:20;2.33;;;1.90;;
1350;SDS011;669;50.206;9.998;2023-04-25T11:47:50;1.70;;;1.60;;
1350;SDS011;669;50.206;9.998;2023-04-25T11:50:19;2.80;;;1.87;;
1350;SDS011;669;50.206;9.998;2023-04-25T11:52:47;2.20;;;2.10;;
1350;SDS011;669;50.206;9.998;2023-04-25T11:55:18;1.30;;;1.20;;
1350;SDS011;669;50.206;9.998;2023-04-25T11:57:48;2.23;;;2.03;;
1350;SDS011;669;50.206;9.998;2023-04-25T12:00:17;2.27;;;1.90;;
1350;SDS011;669;50.206;9.998;2023-04-25T12:02:48;3.03;;;2.70;;
1350;SDS011;669;50.206;9.998;2023-04-25T12:05:19;2.30;;;2.10;;
1350;SDS011;669;50.206;9.998;2023-04-25T12:07:53;6.73;;;2.33;;
1350;SDS011;669;50.206;9.998;2023-04-25T12:10:23;3.40;;;3.10;;
1350;SDS011;669;50.206;9.998;2023-04-25T12:12:52;5.20;;;2.93;;
1350;SDS011;669;50.206;9.998;2023-04-25T12:15:23;2.33;;;2.23;;
1350;SDS011;669;50.206;9.998;2023-04-25T12:17:52;4.80;;;2.73;;
1350;SDS011;669;50.206;9.998;2023-04-25T12:20:23;2.33;;;2.20;;
1350;SDS011;669;50.206;9.998;2023-04-25T12:22:52;3.00;;;1.90;;
1350;SDS011;669;50.206;9.998;2023-04-25T12:25:37;2.23;;;2.10;;
1350;SDS011;669;50.206;9.998;2023-04-25T12:28:10;3.33;;;2.30;;
1350;SDS011;669;50.206;9.998;2023-04-25T12:30:54;1.90;;;1.80;;
1350;SDS011;669;50.206;9.998;2023-04-25T12:33:24;1.60;;;1.20;;
1350;SDS011;669;50.206;9.998;2023-04-25T12:35:53;2.60;;;2.10;;
1350;SDS011;669;50.206;9.998;2023-04-25T12:38:21;4.33;;;2.30;;
1350;SDS011;669;50.206;9.998;2023-04-25T12:40:51;3.50;;;2.13;;
1350;SDS011;669;50.206;9.998;2023-04-25T12:43:20;2.90;;;2.67;;
1350;SDS011;669;50.206;9.998;2023-04-25T12:45:48;1.97;;;1.73;;
1350;SDS011;669;50.206;9.998;2023-04-25T12:48:17;4.57;;;2.13;;
1350;SDS011;669;50.206;9.998;2023-04-25T12:50:45;1.83;;;1.73;;
1350;SDS011;669;50.206;9.998;2023-04-25T12:53:15;2.70;;;2.40;;
1350;SDS011;669;50.206;9.998;2023-04-25T12:55:43;5.70;;;2.60;;
1350;SDS011;669;50.206;9.998;2023-04-25T12:58:13;2.43;;;1.83;;
1350;SDS011;669;50.206;9.998;2023-04-25T13:00:42;3.73;;;2.13;;
1350;SDS011;669;50.206;9.998;2023-04-25T13:03:10;4.00;;;2.30;;
1350;SDS011;669;50.206;9.998;2023-04-25T13:05:38;3.13;;;2.30;;
1350;SDS011;669;50.206;9.998;2023-04-25T13:08:07;4.20;;;2.30;;
1350;SDS011;669;50.206;9.998;2023-04-25T13:10:35;4.43;;;2.37;;
1350;SDS011;669;50.206;9.998;2023-04-25T13:13:05;6.50;;;2.13;;
1350;SDS011;669;50.206;9.998;2023-04-25T13:15:34;3.83;;;2.40;;
1350;SDS011;669;50.206;9.998;2023-04-25T13:18:03;5.30;;;3.13;;
1350;SDS011;669;50.206;9.998;2023-04-25T13:20:31;3.30;;;2.80;;
1350;SDS011;669;50.206;9.998;2023-04-25T13:22:59;2.17;;;1.93;;
1350;SDS011;669;50.206;9.998;2023-04-25T13:25:28;2.07;;;1.90;;
1350;SDS011;669;50.206;9.998;2023-04-25T13:27:56;3.70;;;2.63;;
1350;SDS011;669;50.206;9.998;2023-04-25T13:30:24;3.40;;;2.83;;
1350;SDS011;669;50.206;9.998;2023-04-25T13:32:53;3.93;;;2.37;;
1350;SDS011;669;50.206;9.998;2023-04-25T13:35:23;6.07;;;3.23;;
1350;SDS011;669;50.206;9.998;2023-04-25T13:37:51;8.87;;;3.00;;
1350;SDS011;669;50.206;9.998;2023-04-25T13:40:19;2.90;;;2.20;;
1350;SDS011;669;50.206;9.998;2023-04-25T13:42:50;5.70;;;3.10;;
1350;SDS011;669;50.206;9.998;2023-04-25T13:45:18;5.80;;;2.43;;
1350;SDS011;669;50.206;9.998;2023-04-25T13:47:46;2.87;;;2.40;;
1350;SDS011;669;50.206;9.998;2023-04-25T13:50:16;2.23;;;2.07;;
1350;SDS011;669;50.206;9.998;2023-04-25T13:52:44;3.53;;;2.20;;
1350;SDS011;669;50.206;9.998;2023-04-25T13:55:12;3.40;;;2.43;;
1350;SDS011;669;50.206;9.998;2023-04-25T13:57:40;5.30;;;2.13;;
1350;SDS011;669;50.206;9.998;2023-04-25T14:00:08;3.27;;;1.70;;
1350;SDS011;669;50.206;9.998;2023-04-25T14:02:37;2.67;;;2.37;;
1350;SDS011;669;50.206;9.998;2023-04-25T14:05:06;6.93;;;1.70;;
1350;SDS011;669;50.206;9.998;2023-04-25T14:07:37;7.67;;;2.70;;
1350;SDS011;669;50.206;9.998;2023-04-25T14:10:05;9.00;;;3.30;;
1350;SDS011;669;50.206;9.998;2023-04-25T14:12:33;2.60;;;2.40;;
1350;SDS011;669;50.206;9.998;2023-04-25T14:15:02;3.87;;;2.63;;
1350;SDS011;669;50.206;9.998;2023-04-25T14:17:30;4.63;;;2.13;;
1350;SDS011;669;50.206;9.998;2023-04-25T14:19:58;2.73;;;2.47;;
1350;SDS011;669;50.206;9.998;2023-04-25T14:22:26;3.70;;;2.00;;
1350;SDS011;669;50.206;9.998;2023-04-25T14:24:55;3.50;;;2.60;;
1350;SDS011;669;50.206;9.998;2023-04-25T14:27:24;3.43;;;2.40;;
1350;SDS011;669;50.206;9.998;2023-04-25T14:29:54;6.70;;;3.23;;
1350;SDS011;669;50.206;9.998;2023-04-25T14:32:22;5.53;;;2.73;;
1350;SDS011;669;50.206;9.998;2023-04-25T14:34:50;4.07;;;2.33;;
1350;SDS011;669;50.206;9.998;2023-04-25T14:37:18;7.50;;;2.40;;
1350;SDS011;669;50.206;9.998;2023-04-25T14:39:46;3.77;;;2.47;;
1350;SDS011;669;50.206;9.998;2023-04-25T14:42:15;7.00;;;3.27;;
1350;SDS011;669;50.206;9.998;2023-04-25T14:44:43;7.50;;;2.50;;
1350;SDS011;669;50.206;9.998;2023-04-25T14:47:11;3.40;;;2.17;;
1350;SDS011;669;50.206;9.998;2023-04-25T14:49:39;4.63;;;3.00;;
1350;SDS011;669;50.206;9.998;2023-04-25T14:52:06;5.60;;;2.67;;
1350;SDS011;669;50.206;9.998;2023-04-25T14:54:34;4.40;;;2.30;;
1350;SDS011;669;50.206;9.998;2023-04-25T14:57:02;2.33;;;2.13;;
1350;SDS011;669;50.206;9.998;2023-04-25T14:59:32;5.07;;;2.70;;
1350;SDS011;669;50.206;9.998;2023-04-25T15:01:59;6.87;;;2.60;;
1350;SDS011;669;50.206;9.998;2023-04-25T15:04:28;4.30;;;2.17;;
1350;SDS011;669;50.206;9.998;2023-04-25T15:06:56;4.23;;;2.57;;
1350;SDS011;669;50.206;9.998;2023-04-25T15:09:25;4.93;;;2.50;;
1350;SDS011;669;50.206;9.998;2023-04-25T15:11:54;6.63;;;2.50;;
1350;SDS011;669;50.206;9.998;2023-04-25T15:14:23;4.83;;;2.53;;
1350;SDS011;669;50.206;9.998;2023-04-25T15:16:52;5.03;;;2.73;;
1350;SDS011;669;50.206;9.998;2023-04-25T15:19:20;6.10;;;2.00;;
1350;SDS011;669;50.206;9.998;2023-04-25T15:21:48;6.00;;;3.17;;
1350;SDS011;669;50.206;9.998;2023-04-25T15:24:16;4.20;;;2.70;;
1350;SDS011;669;50.206;9.998;2023-04-25T15:26:44;5.97;;;2.50;;
1350;SDS011;669;50.206;9.998;2023-04-25T15:29:12;9.37;;;3.53;;
1350;SDS011;669;50.206;9.998;2023-04-25T15:31:40;2.60;;;2.30;;
1350;SDS011;669;50.206;9.998;2023-04-25T15:34:09;4.10;;;2.50;;
1350;SDS011;669;50.206;9.998;2023-04-25T15:36:38;5.03;;;2.30;;